Brookville Heights, Indiana
Current Conditions -  °F | °C
As of 3:35 PM on Friday 28 Nov 2014 (Local Time) from KMQJ Reporting Station
Clear Clear  
Wind Chill: 22°   Ceiling: Unl
Heat Index: 32°   Visibility: 10mi
Dew Point: 12°   Wind: 15mph
Humidity: 44%   Direction: 160°SSE
Pressure: 30.16"   Gusts: 18mph
Location:  39.731°N, 85.9032°W
Report Text: KMQJ 282035Z AUTO 16013G16KT 10SM CLR M00/M11 A3016 RMK AO1
Loading
Personal Weather Stations






























Interactive Weather Map New forecast layout! Learn more

10-Day Weather Forecast

Advertisements
Track Severe Weather on mobile